N314SW KLAX-KSNA
Flight info
| Callsign | N314SW |
|---|---|
| Flight time | 0h 20m |
| Altitude | VFR/035 |
| Route | S |
| Aircraft | DA62/L-VGD/C |
Departure
| Time | 2026-04-25 05:09 |
|---|---|
| Airport | Los Angeles International Airport (KLAX) |
Arrival
| Time | 2026-04-25 05:29 |
|---|---|
| Airport | John Wayne Orange County International Airport (KSNA) |
| Time | Latitude | Longitude | Altitude | Speed | Heading |
|---|---|---|---|---|---|
| 2026-04-25 04:54 | 33.93301 | -118.40002 | 120 ft | 0 kts | 232° |
| 2026-04-25 04:59 | 33.93304 | -118.40015 | 102 ft | 5 kts | 342° |
| 2026-04-25 04:59 | 33.93337 | -118.39995 | 120 ft | 5 kts | 23° |
| 2026-04-25 04:59 | 33.93368 | -118.39996 | 118 ft | 4 kts | 327° |
| 2026-04-25 05:00 | 33.93405 | -118.40041 | 119 ft | 7 kts | 355° |
| 2026-04-25 05:00 | 33.93409 | -118.40041 | 118 ft | 0 kts | 2° |
| 2026-04-25 05:01 | 33.93425 | -118.40039 | 118 ft | 3 kts | 24° |
| 2026-04-25 05:01 | 33.93435 | -118.40003 | 120 ft | 9 kts | 80° |
| 2026-04-25 05:02 | 33.93448 | -118.39875 | 120 ft | 23 kts | 84° |
| 2026-04-25 05:02 | 33.93469 | -118.39673 | 120 ft | 22 kts | 79° |
| 2026-04-25 05:02 | 33.93488 | -118.39501 | 120 ft | 19 kts | 80° |
| 2026-04-25 05:02 | 33.93504 | -118.39346 | 120 ft | 18 kts | 86° |
| 2026-04-25 05:03 | 33.93518 | -118.39202 | 120 ft | 17 kts | 81° |
| 2026-04-25 05:03 | 33.93533 | -118.39066 | 120 ft | 16 kts | 77° |
| 2026-04-25 05:03 | 33.93549 | -118.38938 | 120 ft | 15 kts | 89° |
| 2026-04-25 05:03 | 33.93560 | -118.38815 | 120 ft | 15 kts | 83° |
| 2026-04-25 05:04 | 33.93572 | -118.38696 | 120 ft | 14 kts | 80° |
| 2026-04-25 05:04 | 33.93583 | -118.38581 | 119 ft | 14 kts | 82° |
| 2026-04-25 05:04 | 33.93594 | -118.38470 | 117 ft | 13 kts | 83° |
| 2026-04-25 05:04 | 33.93604 | -118.38368 | 120 ft | 12 kts | 85° |
| 2026-04-25 05:05 | 33.93627 | -118.38288 | 118 ft | 8 kts | 25° |
| 2026-04-25 05:05 | 33.93650 | -118.38280 | 119 ft | 0 kts | 353° |
| 2026-04-25 05:06 | 33.93664 | -118.38282 | 120 ft | 5 kts | 353° |
| 2026-04-25 05:07 | 33.93703 | -118.38287 | 120 ft | 8 kts | 351° |
| 2026-04-25 05:07 | 33.93727 | -118.38356 | 120 ft | 11 kts | 261° |
| 2026-04-25 05:07 | 33.93722 | -118.38426 | 120 ft | 0 kts | 263° |
| 2026-04-25 05:08 | 33.93710 | -118.38519 | 120 ft | 37 kts | 262° |
| 2026-04-25 05:08 | 33.93655 | -118.39052 | 132 ft | 86 kts | 261° |
| 2026-04-25 05:08 | 33.93571 | -118.39875 | 164 ft | 111 kts | 261° |
| 2026-04-25 05:08 | 33.93471 | -118.40826 | 356 ft | 111 kts | 262° |
| 2026-04-25 05:09 | 33.93387 | -118.41738 | 539 ft | 111 kts | 261° |
| 2026-04-25 05:09 | 33.93286 | -118.42679 | 644 ft | 115 kts | 261° |
| 2026-04-25 05:09 | 33.93131 | -118.43608 | 808 ft | 112 kts | 243° |
| 2026-04-25 05:09 | 33.92526 | -118.44184 | 907 ft | 119 kts | 194° |
| 2026-04-25 05:10 | 33.91729 | -118.43973 | 1023 ft | 122 kts | 149° |
| 2026-04-25 05:10 | 33.91020 | -118.43388 | 1148 ft | 125 kts | 146° |
| 2026-04-25 05:10 | 33.90261 | -118.42833 | 1229 ft | 129 kts | 154° |
| 2026-04-25 05:10 | 33.89468 | -118.42364 | 1380 ft | 126 kts | 156° |
| 2026-04-25 05:11 | 33.88670 | -118.41909 | 1439 ft | 130 kts | 156° |
| 2026-04-25 05:11 | 33.87854 | -118.41448 | 1552 ft | 128 kts | 156° |
| 2026-04-25 05:11 | 33.87043 | -118.40999 | 1643 ft | 130 kts | 157° |
| 2026-04-25 05:12 | 33.85376 | -118.40118 | 1833 ft | 130 kts | 158° |
| 2026-04-25 05:12 | 33.84534 | -118.39693 | 1876 ft | 133 kts | 159° |
| 2026-04-25 05:12 | 33.83654 | -118.39360 | 1943 ft | 132 kts | 169° |
| 2026-04-25 05:12 | 33.82757 | -118.39180 | 2044 ft | 130 kts | 176° |
| 2026-04-25 05:13 | 33.81848 | -118.39114 | 2095 ft | 132 kts | 179° |
| 2026-04-25 05:13 | 33.80938 | -118.39085 | 2179 ft | 131 kts | 180° |
| 2026-04-25 05:13 | 33.80023 | -118.38967 | 2232 ft | 133 kts | 171° |
| 2026-04-25 05:13 | 33.79164 | -118.38597 | 2342 ft | 132 kts | 147° |
| 2026-04-25 05:14 | 33.78570 | -118.37745 | 2340 ft | 138 kts | 111° |
| 2026-04-25 05:14 | 33.78522 | -118.36608 | 2372 ft | 137 kts | 80° |
| 2026-04-25 05:14 | 33.78645 | -118.35462 | 2236 ft | 134 kts | 83° |
| 2026-04-25 05:15 | 33.78743 | -118.33182 | 1873 ft | 136 kts | 86° |
| 2026-04-25 05:15 | 33.78787 | -118.32080 | 1874 ft | 131 kts | 86° |
| 2026-04-25 05:15 | 33.78829 | -118.30992 | 1838 ft | 132 kts | 86° |
| 2026-04-25 05:15 | 33.78872 | -118.29870 | 1768 ft | 136 kts | 87° |
| 2026-04-25 05:16 | 33.78918 | -118.28723 | 1689 ft | 138 kts | 86° |
| 2026-04-25 05:16 | 33.78968 | -118.27582 | 1619 ft | 139 kts | 86° |
| 2026-04-25 05:16 | 33.79019 | -118.26416 | 1548 ft | 140 kts | 86° |
| 2026-04-25 05:16 | 33.79067 | -118.25252 | 1498 ft | 137 kts | 86° |
| 2026-04-25 05:17 | 33.79118 | -118.24124 | 1499 ft | 133 kts | 86° |
| 2026-04-25 05:17 | 33.79165 | -118.23028 | 1495 ft | 130 kts | 86° |
| 2026-04-25 05:17 | 33.79213 | -118.21949 | 1485 ft | 127 kts | 84° |
| 2026-04-25 05:17 | 33.79577 | -118.21008 | 1494 ft | 125 kts | 55° |
| 2026-04-25 05:18 | 33.80046 | -118.20121 | 1493 ft | 127 kts | 57° |
| 2026-04-25 05:18 | 33.80524 | -118.19222 | 1498 ft | 128 kts | 57° |
| 2026-04-25 05:18 | 33.81003 | -118.18316 | 1501 ft | 128 kts | 60° |
| 2026-04-25 05:18 | 33.81098 | -118.17267 | 1500 ft | 128 kts | 95° |
| 2026-04-25 05:19 | 33.81025 | -118.16214 | 1535 ft | 124 kts | 103° |
| 2026-04-25 05:19 | 33.80709 | -118.15278 | 1581 ft | 116 kts | 114° |
| 2026-04-25 05:19 | 33.80399 | -118.14410 | 1620 ft | 111 kts | 115° |
| 2026-04-25 05:19 | 33.80073 | -118.13579 | 1664 ft | 111 kts | 116° |
| 2026-04-25 05:20 | 33.79728 | -118.12702 | 1714 ft | 120 kts | 116° |
| 2026-04-25 05:20 | 33.79357 | -118.11770 | 1776 ft | 129 kts | 116° |
| 2026-04-25 05:20 | 33.78964 | -118.10784 | 1837 ft | 133 kts | 116° |
| 2026-04-25 05:20 | 33.78567 | -118.09786 | 1867 ft | 135 kts | 116° |
| 2026-04-25 05:21 | 33.78160 | -118.08754 | 1921 ft | 137 kts | 116° |
| 2026-04-25 05:21 | 33.77745 | -118.07713 | 1971 ft | 140 kts | 116° |
| 2026-04-25 05:21 | 33.77316 | -118.06639 | 1976 ft | 144 kts | 116° |
| 2026-04-25 05:21 | 33.76877 | -118.05541 | 1981 ft | 147 kts | 116° |
| 2026-04-25 05:22 | 33.76498 | -118.04407 | 1982 ft | 149 kts | 109° |
| 2026-04-25 05:22 | 33.76146 | -118.03215 | 1982 ft | 150 kts | 110° |
| 2026-04-25 05:22 | 33.75782 | -118.02058 | 1978 ft | 148 kts | 113° |
| 2026-04-25 05:22 | 33.75407 | -118.00968 | 1970 ft | 136 kts | 113° |
| 2026-04-25 05:23 | 33.75052 | -117.99941 | 1959 ft | 129 kts | 113° |
| 2026-04-25 05:23 | 33.74715 | -117.98963 | 1954 ft | 124 kts | 113° |
| 2026-04-25 05:23 | 33.74387 | -117.98020 | 1955 ft | 121 kts | 113° |
| 2026-04-25 05:23 | 33.74068 | -117.97089 | 1956 ft | 120 kts | 113° |
| 2026-04-25 05:24 | 33.73752 | -117.96161 | 1952 ft | 120 kts | 113° |
| 2026-04-25 05:24 | 33.73435 | -117.95235 | 1988 ft | 119 kts | 113° |
| 2026-04-25 05:24 | 33.73123 | -117.94317 | 1991 ft | 118 kts | 113° |
| 2026-04-25 05:24 | 33.72816 | -117.93406 | 1990 ft | 117 kts | 113° |
| 2026-04-25 05:25 | 33.72513 | -117.92502 | 1998 ft | 116 kts | 113° |
| 2026-04-25 05:25 | 33.72231 | -117.91653 | 1986 ft | 100 kts | 111° |
| 2026-04-25 05:25 | 33.72129 | -117.90887 | 1979 ft | 86 kts | 101° |
| 2026-04-25 05:25 | 33.72040 | -117.90181 | 1895 ft | 87 kts | 97° |
| 2026-04-25 05:26 | 33.71975 | -117.89459 | 1750 ft | 89 kts | 97° |
| 2026-04-25 05:26 | 33.71936 | -117.88711 | 1582 ft | 92 kts | 93° |
| 2026-04-25 05:26 | 33.71927 | -117.87935 | 1423 ft | 93 kts | 92° |
| 2026-04-25 05:26 | 33.71924 | -117.87162 | 1274 ft | 91 kts | 91° |
| 2026-04-25 05:27 | 33.71916 | -117.86419 | 1156 ft | 86 kts | 94° |
| 2026-04-25 05:27 | 33.71881 | -117.85714 | 1011 ft | 82 kts | 100° |
| 2026-04-25 05:27 | 33.71618 | -117.85149 | 859 ft | 78 kts | 143° |
| 2026-04-25 05:27 | 33.71088 | -117.85027 | 644 ft | 84 kts | 185° |
| 2026-04-25 05:28 | 33.70509 | -117.85163 | 429 ft | 84 kts | 188° |
| 2026-04-25 05:28 | 33.70005 | -117.85381 | 275 ft | 76 kts | 204° |
| 2026-04-25 05:28 | 33.69538 | -117.85697 | 240 ft | 72 kts | 196° |
| 2026-04-25 05:28 | 33.69086 | -117.85960 | 219 ft | 72 kts | 197° |
| 2026-04-25 05:29 | 33.68640 | -117.86225 | 152 ft | 72 kts | 197° |
| 2026-04-25 05:29 | 33.68197 | -117.86494 | 91 ft | 72 kts | 202° |
| 2026-04-25 05:29 | 33.67761 | -117.86772 | 54 ft | 66 kts | 200° |
| 2026-04-25 05:29 | 33.67454 | -117.86948 | 50 ft | 27 kts | 220° |
| 2026-04-25 05:30 | 33.67412 | -117.87063 | 51 ft | 8 kts | 308° |
| 2026-04-25 05:30 | 33.67449 | -117.87108 | 51 ft | 8 kts | 355° |
| 2026-04-25 05:30 | 33.67495 | -117.87080 | 50 ft | 7 kts | 29° |
| 2026-04-25 05:30 | 33.67541 | -117.87050 | 50 ft | 8 kts | 32° |
| 2026-04-25 05:31 | 33.67585 | -117.87017 | 50 ft | 8 kts | 19° |
| 2026-04-25 05:31 | 33.67634 | -117.86993 | 50 ft | 8 kts | 26° |
| 2026-04-25 05:31 | 33.67682 | -117.86964 | 50 ft | 8 kts | 27° |
| 2026-04-25 05:31 | 33.67730 | -117.86935 | 49 ft | 8 kts | 28° |
| 2026-04-25 05:32 | 33.67775 | -117.86902 | 49 ft | 8 kts | 34° |
| 2026-04-25 05:32 | 33.67809 | -117.86901 | 49 ft | 7 kts | 287° |
| 2026-04-25 05:32 | 33.67840 | -117.86941 | 49 ft | 6 kts | 284° |
| 2026-04-25 05:32 | 33.67828 | -117.86947 | 49 ft | 3 kts | 126° |
| 2026-04-25 05:33 | 33.67829 | -117.86930 | 49 ft | 1 kts | 120° |